createdAt,value
2018-06-11T00:01:55.737Z,101007.28
2018-06-11T00:04:25.087Z,100999.40
2018-06-11T00:06:54.359Z,101001.97
2018-06-11T00:09:23.652Z,101005.97
2018-06-11T00:11:53.198Z,101013.33
2018-06-11T00:14:22.462Z,101021.84
2018-06-11T00:16:51.775Z,101019.86
2018-06-11T00:19:21.121Z,101026.28
2018-06-11T00:21:50.400Z,101027.33
2018-06-11T00:24:19.756Z,101026.48
2018-06-11T00:26:49.088Z,101028.52
2018-06-11T00:29:18.364Z,101024.92
2018-06-11T00:31:47.694Z,101018.77
2018-06-11T00:34:17.353Z,101019.41
2018-06-11T00:36:46.678Z,101018.02
2018-06-11T00:39:15.958Z,101019.55
2018-06-11T00:41:45.326Z,101018.55
2018-06-11T00:44:14.607Z,101022.59
2018-06-11T00:46:43.873Z,101026.52
2018-06-11T00:49:13.227Z,101029.16
2018-06-11T00:51:42.479Z,101023.39
2018-06-11T00:54:11.715Z,101023.84
2018-06-11T00:56:41.079Z,101023.95
2018-06-11T00:59:10.361Z,101028.25
2018-06-11T01:01:39.638Z,101023.03
2018-06-11T01:04:08.941Z,101033.13
2018-06-11T01:06:38.185Z,101034.92
2018-06-11T01:09:08.241Z,101028.53
2018-06-11T01:11:37.552Z,101032.65
2018-06-11T01:14:06.812Z,101035.01
2018-06-11T01:16:36.647Z,101030.72
2018-06-11T01:19:06.304Z,101031.66
2018-06-11T01:21:35.572Z,101029.54
2018-06-11T01:24:04.831Z,101037.37
2018-06-11T01:26:34.147Z,101031.20
2018-06-11T01:29:03.408Z,101039.33
2018-06-11T01:31:32.700Z,101033.95
2018-06-11T01:34:02.028Z,101033.63
2018-06-11T01:36:31.289Z,101025.55
2018-06-11T01:39:00.571Z,101020.82
2018-06-11T01:41:30.074Z,101026.95
2018-06-11T01:43:59.348Z,101021.23
2018-06-11T01:46:28.630Z,101026.33
2018-06-11T01:48:57.945Z,101019.86
2018-06-11T01:51:27.235Z,101015.23
2018-06-11T01:53:56.508Z,101014.27
2018-06-11T01:56:25.805Z,101021.86
2018-06-11T01:58:55.055Z,101015.86
2018-06-11T02:01:24.328Z,101017.88
2018-06-11T02:03:53.715Z,101023.99
2018-06-11T02:06:24.537Z,101024.94
2018-06-11T02:08:53.829Z,101019.45
2018-06-11T02:11:23.172Z,101031.79
2018-06-11T02:13:52.469Z,101036.12
2018-06-11T02:16:22.389Z,101042.77
2018-06-11T02:18:54.676Z,101042.77
2018-06-11T02:21:23.981Z,101040.44
2018-06-11T02:23:53.239Z,101036.33
2018-06-11T02:26:22.816Z,101046.16
2018-06-11T02:28:52.107Z,101048.27
2018-06-11T02:31:21.383Z,101053.11
2018-06-11T02:33:50.719Z,101063.13
2018-06-11T02:36:20.045Z,101065.04
2018-06-11T02:38:49.325Z,101068.73
2018-06-11T02:41:18.626Z,101063.78
2018-06-11T02:46:16.179Z,101066.29
2018-06-11T02:48:45.760Z,101061.17
2018-06-11T02:51:15.063Z,101058.88
2018-06-11T02:53:44.354Z,101067.58
2018-06-11T02:56:13.701Z,101065.55
2018-06-11T02:58:42.977Z,101062.72
2018-06-11T03:01:12.001Z,101061.36
2018-06-11T03:03:41.374Z,101062.10
2018-06-11T03:06:10.657Z,101070.34
2018-06-11T03:08:39.922Z,101064.52
2018-06-11T03:11:09.559Z,101065.56
2018-06-11T03:13:38.835Z,101057.98
2018-06-11T03:16:08.101Z,101057.34
2018-06-11T03:18:37.416Z,101054.18
2018-06-11T03:21:06.703Z,101059.78
2018-06-11T03:23:36.053Z,101061.26
2018-06-11T03:26:05.378Z,101051.86
2018-06-11T03:28:34.599Z,101044.79
2018-06-11T03:31:03.850Z,101049.96
2018-06-11T03:33:33.479Z,101054.81
2018-06-11T03:36:02.949Z,101072.55
2018-06-11T03:38:32.213Z,101070.97
2018-06-11T03:41:01.475Z,101065.91
2018-06-11T03:43:30.749Z,101067.70
2018-06-11T03:46:00.088Z,101072.98
2018-06-11T03:48:29.371Z,101077.73
2018-06-11T03:50:58.664Z,101076.77
2018-06-11T03:53:27.973Z,101082.06
2018-06-11T03:55:57.804Z,101079.00
2018-06-11T03:58:27.126Z,101068.97
2018-06-11T04:00:56.471Z,101069.59
2018-06-11T04:03:25.897Z,101064.73
2018-06-11T04:05:55.162Z,101070.34
2018-06-11T04:08:24.504Z,101067.06
2018-06-11T04:10:53.893Z,101059.98
2018-06-11T04:13:23.138Z,101059.25
2018-06-11T04:15:52.401Z,101047.21
2018-06-11T04:18:22.137Z,101055.78
2018-06-11T04:20:51.464Z,101053.36
2018-06-11T04:23:20.772Z,101042.79
2018-06-11T04:25:50.094Z,101044.57
2018-06-11T04:28:19.415Z,101064.50
2018-06-11T04:30:48.679Z,101065.59
2018-06-11T04:33:18.016Z,101066.53
2018-06-11T04:35:47.336Z,101067.06
2018-06-11T04:38:16.624Z,101059.90
2018-06-11T04:40:46.139Z,101052.52
2018-06-11T04:43:15.416Z,101045.11
2018-06-11T04:45:44.771Z,101047.88
2018-06-11T04:48:14.120Z,101042.88
2018-06-11T04:50:43.437Z,101053.39
2018-06-11T04:53:12.814Z,101050.08
2018-06-11T04:55:42.139Z,101045.66
2018-06-11T04:58:11.420Z,101056.24
2018-06-11T05:00:40.736Z,101052.63
2018-06-11T05:03:10.225Z,101064.88
2018-06-11T05:05:39.523Z,101063.72
2018-06-11T05:08:08.849Z,101068.77
2018-06-11T05:10:38.185Z,101067.50
2018-06-11T05:13:07.546Z,101063.67
2018-06-11T05:15:36.961Z,101063.73
2018-06-11T05:18:06.342Z,101064.73
2018-06-11T05:20:35.695Z,101066.16
2018-06-11T05:23:04.986Z,101060.83
2018-06-11T05:25:34.455Z,101071.83
2018-06-11T05:28:03.795Z,101069.62
2018-06-11T05:30:33.080Z,101073.12
2018-06-11T05:33:02.709Z,101078.97
2018-06-11T05:35:31.999Z,101084.83
2018-06-11T05:38:01.335Z,101089.30
2018-06-11T05:40:30.649Z,101089.83
2018-06-11T05:42:59.934Z,101091.27
2018-06-11T05:45:29.234Z,101089.22
2018-06-11T05:47:58.710Z,101092.62
2018-06-11T05:50:28.122Z,101100.36
2018-06-11T05:52:57.418Z,101090.70
2018-06-11T05:55:26.812Z,101099.89
2018-06-11T05:57:56.339Z,101106.36
2018-06-11T06:00:25.931Z,101104.95
2018-06-11T06:02:55.301Z,101107.48
2018-06-11T06:05:24.621Z,101111.02
2018-06-11T06:07:53.994Z,101112.49
2018-06-11T06:10:23.751Z,101110.90
2018-06-11T06:12:53.080Z,101108.45
2018-06-11T06:15:22.383Z,101113.20
2018-06-11T06:17:51.750Z,101119.06
2018-06-11T06:20:21.047Z,101111.86
2018-06-11T06:22:50.346Z,101115.81
2018-06-11T06:25:19.805Z,101113.31
2018-06-11T06:27:49.162Z,101105.90
2018-06-11T06:30:18.547Z,101113.88
2018-06-11T06:32:48.299Z,101114.43
2018-06-11T06:35:17.811Z,101110.75
2018-06-11T06:37:47.132Z,101107.92
2018-06-11T06:40:16.579Z,101104.48
2018-06-11T06:42:45.867Z,101106.94
2018-06-11T06:45:15.204Z,101109.77
2018-06-11T06:47:44.587Z,101097.58
2018-06-11T06:50:13.879Z,101108.61
2018-06-11T06:52:43.160Z,101106.62
2018-06-11T06:55:12.850Z,101115.42
2018-06-11T06:57:42.191Z,101115.52
2018-06-11T07:00:11.573Z,101110.23
2018-06-11T07:02:40.912Z,101115.59
2018-06-11T07:05:10.276Z,101112.30
2018-06-11T07:07:39.602Z,101109.67
2018-06-11T07:10:08.918Z,101114.83
2018-06-11T07:12:38.167Z,101108.74
2018-06-11T07:15:07.497Z,101107.45
2018-06-11T07:17:37.204Z,101107.64
2018-06-11T07:20:06.564Z,101108.09
2018-06-11T07:22:35.808Z,101109.63
2018-06-11T07:25:05.101Z,101106.34
2018-06-11T07:27:34.390Z,101108.81
2018-06-11T07:30:03.674Z,101110.14
2018-06-11T07:32:33.767Z,101107.73
2018-06-11T07:35:03.051Z,101120.89
2018-06-11T07:37:32.322Z,101111.14
2018-06-11T07:40:01.714Z,101112.42
2018-06-11T07:42:31.222Z,101112.89
2018-06-11T07:45:00.475Z,101112.50
2018-06-11T07:47:29.808Z,101104.69
2018-06-11T07:49:59.139Z,101106.23
2018-06-11T07:52:28.474Z,101108.39
2018-06-11T07:54:57.789Z,101116.78
2018-06-11T07:57:27.153Z,101111.16
2018-06-11T07:59:56.599Z,101126.23
2018-06-11T08:02:26.224Z,101123.52
2018-06-11T08:04:55.626Z,101122.02
2018-06-11T08:07:24.743Z,101117.12
2018-06-11T08:09:54.168Z,101110.09
2018-06-11T08:12:23.450Z,101116.20
2018-06-11T08:14:52.766Z,101112.69
2018-06-11T08:17:22.127Z,101108.72
2018-06-11T08:19:51.529Z,101114.16
2018-06-11T08:22:20.823Z,101113.44
2018-06-11T08:24:50.543Z,101121.97
2018-06-11T08:27:19.869Z,101118.18
2018-06-11T08:29:49.140Z,101118.06
2018-06-11T08:32:18.436Z,101116.73
2018-06-11T08:34:47.808Z,101118.53
2018-06-11T08:37:17.107Z,101117.97
2018-06-11T08:39:46.398Z,101118.37
2018-06-11T08:42:15.743Z,101115.28
2018-06-11T08:44:45.039Z,101121.21
2018-06-11T08:47:14.657Z,101114.50
2018-06-11T08:49:43.970Z,101113.30
2018-06-11T08:52:13.290Z,101114.86
2018-06-11T08:54:42.596Z,101113.30
2018-06-11T08:57:11.859Z,101108.20
2018-06-11T08:59:41.159Z,101111.45
2018-06-11T09:02:10.595Z,101109.16
2018-06-11T09:04:39.901Z,101113.80
2018-06-11T09:07:09.378Z,101108.33
2018-06-11T09:09:39.200Z,101109.34
2018-06-11T09:12:08.537Z,101102.24
2018-06-11T09:14:37.871Z,101102.92
2018-06-11T09:17:07.232Z,101106.09
2018-06-11T09:19:36.573Z,101103.81
2018-06-11T09:22:05.947Z,101115.34
2018-06-11T09:24:35.339Z,101116.82
2018-06-11T09:27:04.665Z,101110.31
2018-06-11T09:29:37.288Z,101104.78
2018-06-11T09:32:06.627Z,101103.70
2018-06-11T09:34:35.988Z,101115.66
2018-06-11T09:37:05.344Z,101123.58
2018-06-11T09:39:34.640Z,101126.50
2018-06-11T09:42:03.947Z,101135.13
2018-06-11T09:44:33.271Z,101121.25
2018-06-11T09:47:02.569Z,101117.93
2018-06-11T09:49:31.851Z,101109.66
2018-06-11T09:52:01.295Z,101099.98
2018-06-11T09:54:30.596Z,101097.41
2018-06-11T09:57:00.079Z,101096.93
2018-06-11T09:59:29.362Z,101087.60
2018-06-11T10:01:58.700Z,101084.59
2018-06-11T10:04:27.984Z,101090.76
2018-06-11T10:06:57.314Z,101099.31
2018-06-11T10:09:26.598Z,101108.70
2018-06-11T10:11:55.997Z,101102.02
2018-06-11T10:14:25.882Z,101092.18
2018-06-11T10:16:55.181Z,101096.22
2018-06-11T10:19:24.515Z,101094.59
2018-06-11T10:21:54.047Z,101101.20
2018-06-11T10:24:23.318Z,101100.75
2018-06-11T10:26:52.595Z,101107.23
2018-06-11T10:29:21.966Z,101104.48
2018-06-11T10:31:51.355Z,101103.92
2018-06-11T10:34:20.891Z,101098.09
2018-06-11T10:36:50.317Z,101103.33
2018-06-11T10:39:19.588Z,101100.00
2018-06-11T10:41:48.935Z,101103.07
2018-06-11T10:44:18.344Z,101111.48
2018-06-11T10:46:47.703Z,101102.27
2018-06-11T10:49:17.095Z,101100.81
2018-06-11T10:51:46.445Z,101095.00
2018-06-11T10:54:15.931Z,101104.78
2018-06-11T10:56:45.238Z,101100.62
2018-06-11T10:59:14.693Z,101101.49
2018-06-11T11:01:44.011Z,101098.98
2018-06-11T11:04:13.337Z,101102.02
2018-06-11T11:06:42.624Z,101101.40
2018-06-11T11:09:12.208Z,101097.78
2018-06-11T11:11:41.512Z,101096.19
2018-06-11T11:14:10.862Z,101093.36
2018-06-11T11:16:40.002Z,101088.66
2018-06-11T11:19:09.532Z,101087.77
2018-06-11T11:21:39.029Z,101090.89
2018-06-11T11:24:08.350Z,101089.48
2018-06-11T11:26:37.635Z,101083.55
2018-06-11T11:29:06.862Z,101081.84
2018-06-11T11:31:36.160Z,101077.97
2018-06-11T11:34:05.542Z,101080.66
2018-06-11T11:36:34.877Z,101075.46
2018-06-11T11:39:06.287Z,101070.84
2018-06-11T11:41:36.229Z,101067.06
2018-06-11T11:44:05.579Z,101068.97
2018-06-11T11:46:34.875Z,101057.67
2018-06-11T11:49:04.268Z,101058.48
2018-06-11T11:51:33.547Z,101059.17
2018-06-11T11:54:02.936Z,101051.70
2018-06-11T11:56:32.368Z,101049.63
2018-06-11T11:59:01.757Z,101045.69
2018-06-11T12:01:31.050Z,101053.57
2018-06-11T12:04:00.714Z,101043.35
2018-06-11T12:06:29.968Z,101038.61
2018-06-11T12:08:59.266Z,101036.11
2018-06-11T12:11:28.674Z,101038.36
2018-06-11T12:13:57.996Z,101036.95
2018-06-11T12:16:27.338Z,101028.25
2018-06-11T12:18:56.741Z,101027.74
2018-06-11T12:21:26.073Z,101035.78
2018-06-11T12:23:55.410Z,101034.74
2018-06-11T12:26:25.037Z,101032.48
2018-06-11T12:28:54.365Z,101033.13
2018-06-11T12:31:23.955Z,101040.08
2018-06-11T12:33:53.346Z,101040.07
2018-06-11T12:36:22.708Z,101029.77
2018-06-11T12:38:52.092Z,101024.13
2018-06-11T12:41:21.398Z,101024.56
2018-06-11T12:43:50.660Z,101021.73
2018-06-11T12:46:19.924Z,101025.62
2018-06-11T12:48:49.455Z,101031.67
2018-06-11T12:51:18.767Z,101027.25
2018-06-11T12:53:48.664Z,101019.97
2018-06-11T12:56:18.079Z,101018.62
2018-06-11T12:58:47.486Z,101012.19
2018-06-11T13:01:16.760Z,101010.52
2018-06-11T13:03:46.085Z,101003.27
2018-06-11T13:06:15.371Z,100993.23
2018-06-11T13:08:44.767Z,100989.61
2018-06-11T13:11:14.297Z,100997.68
2018-06-11T13:13:43.559Z,100990.72
2018-06-11T13:16:12.884Z,100981.50
2018-06-11T13:18:42.236Z,100970.38
2018-06-11T13:21:11.539Z,100979.79
2018-06-11T13:23:40.776Z,100970.08
2018-06-11T13:26:10.079Z,100963.67
2018-06-11T13:28:39.362Z,100968.69
2018-06-11T13:31:08.656Z,100965.34
2018-06-11T13:33:38.461Z,100964.23
2018-06-11T13:36:07.802Z,100960.88
2018-06-11T13:38:37.063Z,100955.02
2018-06-11T13:41:06.400Z,100953.09
2018-06-11T13:43:35.675Z,100957.83
2018-06-11T13:46:04.926Z,100958.38
2018-06-11T13:48:34.252Z,100960.05
2018-06-11T13:51:03.814Z,100960.55
2018-06-11T13:53:33.093Z,100960.55
2018-06-11T13:56:02.643Z,100957.98
2018-06-11T13:58:31.932Z,100954.12
2018-06-11T14:01:01.270Z,100954.55
2018-06-11T14:03:30.650Z,100954.02
2018-06-11T14:06:00.040Z,100959.93
2018-06-11T14:08:29.315Z,100966.21
2018-06-11T14:10:58.644Z,100961.20
2018-06-11T14:13:27.887Z,100952.22
2018-06-11T14:15:57.175Z,100944.31
2018-06-11T14:18:26.852Z,100939.58
2018-06-11T14:20:56.150Z,100939.30
2018-06-11T14:23:25.387Z,100939.71
2018-06-11T14:25:54.699Z,100938.48
2018-06-11T14:28:23.987Z,100927.91
2018-06-11T14:30:53.349Z,100935.81
2018-06-11T14:33:22.724Z,100935.52
2018-06-11T14:35:51.975Z,100933.80
2018-06-11T14:38:21.264Z,100930.48
2018-06-11T14:40:50.980Z,100935.94
2018-06-11T14:43:20.414Z,100929.84
2018-06-11T14:45:49.672Z,100925.66
2018-06-11T14:48:19.037Z,100921.34
2018-06-11T14:50:48.324Z,100921.93
2018-06-11T14:53:17.734Z,100915.41
2018-06-11T14:55:47.054Z,100915.95
2018-06-11T14:58:16.574Z,100913.81
2018-06-11T15:00:45.919Z,100905.14
2018-06-11T15:03:15.292Z,100912.50
2018-06-11T15:05:44.626Z,100928.30
2018-06-11T15:08:14.007Z,100922.91
2018-06-11T15:10:43.351Z,100921.89
2018-06-11T15:13:12.623Z,100909.45
2018-06-11T15:15:41.995Z,100902.70
2018-06-11T15:18:11.289Z,100902.33
2018-06-11T15:20:40.566Z,100909.42
2018-06-11T15:23:09.833Z,100899.84
2018-06-11T15:25:39.367Z,100899.65
2018-06-11T15:28:08.790Z,100899.19
2018-06-11T15:30:38.103Z,100888.53
2018-06-11T15:33:07.475Z,100887.19
2018-06-11T15:35:36.829Z,100893.92
2018-06-11T15:38:06.197Z,100894.20
2018-06-11T15:40:35.590Z,100890.41
2018-06-11T15:43:05.332Z,100892.45
2018-06-11T15:45:35.154Z,100902.28
2018-06-11T15:48:04.609Z,100911.20
2018-06-11T15:50:33.972Z,100908.72
2018-06-11T15:53:03.261Z,100908.70
2018-06-11T15:55:32.687Z,100905.84
2018-06-11T15:58:02.093Z,100902.16
2018-06-11T16:00:31.435Z,100901.30
2018-06-11T16:03:00.698Z,100896.35
2018-06-11T16:05:30.006Z,100888.10
2018-06-11T16:07:59.260Z,100890.77
2018-06-11T16:10:28.715Z,100882.42
2018-06-11T16:12:58.050Z,100880.14
2018-06-11T16:15:27.346Z,100870.01
2018-06-11T16:17:56.771Z,100870.19
2018-06-11T16:20:26.112Z,100874.17
2018-06-11T16:22:55.439Z,100878.23
2018-06-11T16:25:24.855Z,100871.95
2018-06-11T16:27:54.282Z,100883.86
2018-06-11T16:30:23.828Z,100874.95
2018-06-11T16:32:53.643Z,100875.09
2018-06-11T16:35:23.063Z,100873.34
2018-06-11T16:37:52.397Z,100879.16
2018-06-11T16:40:21.698Z,100879.85
2018-06-11T16:42:51.063Z,100867.45
2018-06-11T16:45:20.379Z,100865.11
2018-06-11T16:47:49.763Z,100875.48
2018-06-11T16:50:18.956Z,100864.10
2018-06-11T16:52:48.227Z,100861.18
2018-06-11T16:55:17.802Z,100860.54
2018-06-11T16:57:47.130Z,100867.83
2018-06-11T17:00:16.452Z,100869.23
2018-06-11T17:02:45.805Z,100867.87
2018-06-11T17:05:15.174Z,100856.38
2018-06-11T17:07:44.557Z,100861.34
2018-06-11T17:10:13.941Z,100857.31
2018-06-11T17:12:43.304Z,100866.09
2018-06-11T17:15:12.627Z,100860.54
2018-06-11T17:17:42.530Z,100854.58
2018-06-11T17:20:11.969Z,100855.61
2018-06-11T17:22:41.364Z,100844.58
2018-06-11T17:25:10.672Z,100849.73
2018-06-11T17:27:40.066Z,100855.97
2018-06-11T17:30:09.474Z,100867.08
2018-06-11T17:32:38.918Z,100868.87
2018-06-11T17:35:08.267Z,100868.36
2018-06-11T17:37:37.571Z,100876.92
2018-06-11T17:40:07.219Z,100879.23
2018-06-11T17:42:36.603Z,100873.06
2018-06-11T17:45:05.979Z,100875.74
2018-06-11T17:47:35.279Z,100880.24
2018-06-11T17:50:04.673Z,100880.83
2018-06-11T17:52:34.088Z,100875.41
2018-06-11T17:55:03.441Z,100880.42
2018-06-11T17:57:32.757Z,100882.98
2018-06-11T18:00:02.110Z,100883.97
2018-06-11T18:02:31.452Z,100880.34
2018-06-11T18:05:00.724Z,100874.98
2018-06-11T18:07:30.048Z,100875.77
2018-06-11T18:09:59.422Z,100873.75
2018-06-11T18:12:28.756Z,100875.53
2018-06-11T18:14:58.050Z,100879.03
2018-06-11T18:17:27.615Z,100871.32
2018-06-11T18:19:57.130Z,100872.75
2018-06-11T18:22:26.726Z,100874.84
2018-06-11T18:24:56.520Z,100869.23
2018-06-11T18:27:26.029Z,100867.64
2018-06-11T18:29:55.643Z,100868.28
2018-06-11T18:32:25.008Z,100867.20
2018-06-11T18:34:54.321Z,100861.16
2018-06-11T18:37:23.729Z,100862.00
2018-06-11T18:39:53.185Z,100860.19
2018-06-11T18:42:22.496Z,100859.18
2018-06-11T18:44:51.855Z,100864.43
2018-06-11T18:47:21.295Z,100859.39
2018-06-11T18:49:50.629Z,100855.15
2018-06-11T18:52:19.962Z,100849.25
2018-06-11T18:54:49.293Z,100854.13
2018-06-11T18:57:18.670Z,100855.27
2018-06-11T18:59:48.068Z,100843.05
2018-06-11T19:02:17.513Z,100847.19
2018-06-11T19:04:47.318Z,100843.80
2018-06-11T19:07:16.466Z,100849.30
2018-06-11T19:09:45.948Z,100848.73
2018-06-11T19:12:15.313Z,100838.48
2018-06-11T19:14:44.684Z,100837.33
2018-06-11T19:17:14.214Z,100836.34
2018-06-11T19:19:43.482Z,100839.09
2018-06-11T19:22:12.865Z,100841.39
2018-06-11T19:24:42.325Z,100838.98
2018-06-11T19:27:11.831Z,100839.28
2018-06-11T19:29:41.265Z,100842.50
2018-06-11T19:32:10.755Z,100840.81
2018-06-11T19:34:40.379Z,100841.02
2018-06-11T19:37:09.690Z,100842.34
2018-06-11T19:39:39.069Z,100851.22
2018-06-11T19:42:08.492Z,100863.86
2018-06-11T19:44:37.834Z,100870.87
2018-06-11T19:47:07.140Z,100883.16
2018-06-11T19:49:36.473Z,100891.78
2018-06-11T19:52:05.806Z,100901.18
2018-06-11T19:54:35.545Z,100914.31
2018-06-11T19:57:04.875Z,100925.27
2018-06-11T19:59:34.207Z,100929.44
2018-06-11T20:02:03.614Z,100936.85
2018-06-11T20:04:33.550Z,100940.15
2018-06-11T20:07:02.853Z,100946.45
2018-06-11T20:09:32.357Z,100932.29
2018-06-11T20:12:01.710Z,100925.23
2018-06-11T20:14:31.033Z,100927.32
2018-06-11T20:17:00.557Z,100931.00
2018-06-11T20:19:30.739Z,100932.86
2018-06-11T20:22:00.238Z,100946.56
2018-06-11T20:24:29.547Z,100945.98
2018-06-11T20:26:58.960Z,100947.70
2018-06-11T20:29:28.268Z,100956.83
2018-06-11T20:31:57.636Z,100966.81
2018-06-11T20:34:26.903Z,100962.53
2018-06-11T20:36:56.318Z,100954.45
2018-06-11T20:39:25.908Z,100965.91
2018-06-11T20:42:02.085Z,100958.20
2018-06-11T20:44:32.021Z,100960.51
2018-06-11T20:47:01.540Z,100966.31
2018-06-11T20:49:31.090Z,100957.79
2018-06-11T20:52:00.585Z,100962.60
2018-06-11T20:54:30.337Z,100965.83
2018-06-11T20:57:00.019Z,100957.89
2018-06-11T20:59:29.822Z,100953.02
2018-06-11T21:01:59.287Z,100951.95
2018-06-11T21:04:28.735Z,100945.89
2018-06-11T21:06:58.489Z,100941.84
2018-06-11T21:09:28.140Z,100941.90
2018-06-11T21:11:57.661Z,100933.20
2018-06-11T21:14:27.346Z,100934.78
2018-06-11T21:16:57.262Z,100931.81
2018-06-11T21:19:26.853Z,100928.78
2018-06-11T21:21:57.391Z,100923.59
2018-06-11T21:24:27.116Z,100918.34
2018-06-11T21:26:56.533Z,100912.03
2018-06-11T21:29:25.930Z,100913.29
2018-06-11T21:31:55.417Z,100911.42
2018-06-11T21:34:24.816Z,100907.20
2018-06-11T21:36:54.029Z,100905.87
2018-06-11T21:39:23.439Z,100899.48
2018-06-11T21:41:53.151Z,100902.55
2018-06-11T21:44:22.887Z,100898.00
2018-06-11T21:46:52.513Z,100893.15
2018-06-11T21:49:21.971Z,100891.36
2018-06-11T21:51:51.262Z,100896.44
2018-06-11T21:54:20.566Z,100894.16
2018-06-11T21:56:49.853Z,100899.22
2018-06-11T21:59:19.479Z,100896.57
2018-06-11T22:01:48.807Z,100899.41
2018-06-11T22:04:18.152Z,100912.02
2018-06-11T22:06:47.754Z,100904.64
2018-06-11T22:09:17.074Z,100916.89
2018-06-11T22:11:46.422Z,100912.67
2018-06-11T22:14:15.851Z,100922.48
2018-06-11T22:16:45.267Z,100920.06
2018-06-11T22:19:14.639Z,100922.90
2018-06-11T22:21:44.008Z,100914.36
2018-06-11T22:24:14.112Z,100917.73
2018-06-11T22:26:43.367Z,100917.11
2018-06-11T22:29:13.207Z,100919.53
2018-06-11T22:31:42.535Z,100925.97
2018-06-11T22:34:11.854Z,100927.23
2018-06-11T22:36:41.256Z,100929.03
2018-06-11T22:39:10.762Z,100930.08
2018-06-11T22:41:40.088Z,100930.50
2018-06-11T22:44:09.410Z,100927.34
2018-06-11T22:46:38.755Z,100924.91
2018-06-11T22:49:08.093Z,100918.05
2018-06-11T22:51:37.812Z,100911.73
2018-06-11T22:54:07.089Z,100909.19
2018-06-11T22:56:36.366Z,100907.71
2018-06-11T22:59:05.743Z,100908.25
2018-06-11T23:01:35.079Z,100904.30
2018-06-11T23:04:04.331Z,100905.19
2018-06-11T23:06:33.643Z,100906.14
2018-06-11T23:09:02.966Z,100901.70
2018-06-11T23:11:32.263Z,100898.08
2018-06-11T23:14:01.874Z,100896.92
2018-06-11T23:16:31.322Z,100897.45
2018-06-11T23:19:00.639Z,100896.09
2018-06-11T23:21:29.977Z,100892.33
2018-06-11T23:23:59.312Z,100894.01
2018-06-11T23:26:28.621Z,100886.94
2018-06-11T23:28:57.923Z,100885.36
2018-06-11T23:31:27.252Z,100882.19
2018-06-11T23:33:56.704Z,100879.03
2018-06-11T23:36:26.414Z,100878.50
2018-06-11T23:38:55.716Z,100881.66
2018-06-11T23:41:25.038Z,100879.34
2018-06-11T23:43:54.348Z,100880.83
2018-06-11T23:46:23.662Z,100870.70
2018-06-11T23:48:53.303Z,100866.59
2018-06-11T23:51:22.639Z,100871.86
2018-06-11T23:53:51.931Z,100871.33
2018-06-11T23:56:21.219Z,100860.77
2018-06-11T23:58:50.851Z,100863.19
